Time;durP1;ratioP1;P1;durP2;ratioP2;P2;SDS_P1;SDS_P2;PMS_P1;PMS_P2;Temp;Humidity;BMP_temperature;BMP_pressure;BME280_temperature;BME280_humidity;BME280_pressure;Samples;Min_cycle;Max_cycle;Signal;HPM_P1;HPM_P2
2021/05/05 00:00:35;;;;;;;38.50;16.55;;;;;;;7.60;55.46;100002.47;1639298;87;21087;-65
2021/05/05 00:03:02;;;;;;;40.25;16.48;;;;;;;7.57;55.40;99991.94;1639147;87;21100;-63
2021/05/05 00:05:29;;;;;;;34.67;16.37;;;;;;;7.57;55.41;99987.33;1639218;86;21307;-65
2021/05/05 00:07:58;;;;;;;38.63;16.12;;;;;;;7.59;55.39;99984.41;1639241;87;21207;-63
2021/05/05 00:10:25;;;;;;;32.95;14.63;;;;;;;7.60;55.22;99990.20;1639220;87;21092;-63
2021/05/05 00:12:52;;;;;;;29.65;13.65;;;;;;;7.62;55.06;99986.77;1639321;86;21292;-63
2021/05/05 00:15:22;;;;;;;29.50;12.05;;;;;;;7.61;54.93;99983.71;1639160;87;21243;-63
2021/05/05 00:17:49;;;;;;;24.72;10.85;;;;;;;7.63;54.85;99982.48;1639160;87;21072;-63
2021/05/05 00:20:18;;;;;;;25.02;10.72;;;;;;;7.67;54.68;99982.11;1639245;87;21080;-63
2021/05/05 00:22:45;;;;;;;26.02;9.78;;;;;;;7.68;54.55;99983.28;1639196;87;21244;-64
2021/05/05 00:25:13;;;;;;;23.40;9.23;;;;;;;7.65;54.37;99982.30;1639175;87;21064;-64
2021/05/05 00:27:41;;;;;;;21.42;9.08;;;;;;;7.63;54.43;99981.13;1639330;86;21074;-64
2021/05/05 00:30:10;;;;;;;24.25;9.23;;;;;;;7.64;54.41;99980.09;1639099;87;21910;-65
2021/05/05 00:32:38;;;;;;;19.60;9.35;;;;;;;7.68;54.32;99981.08;1639267;86;21128;-63
2021/05/05 00:35:06;;;;;;;24.12;9.40;;;;;;;7.69;54.02;99975.43;1639106;87;21322;-64
2021/05/05 00:37:34;;;;;;;22.27;9.35;;;;;;;7.69;54.26;99982.25;1639212;86;21368;-64
2021/05/05 00:40:02;;;;;;;22.10;10.20;;;;;;;7.67;54.36;99976.66;1639119;87;21368;-64
2021/05/05 00:42:30;;;;;;;24.50;9.73;;;;;;;7.64;54.32;99975.16;1639158;87;21219;-63
2021/05/05 00:44:59;;;;;;;22.58;9.68;;;;;;;7.65;54.27;99975.48;1639043;87;21159;-63
2021/05/05 00:47:30;;;;;;;23.70;9.80;;;;;;;7.69;54.06;99965.89;1639137;87;21223;-65
2021/05/05 00:49:57;;;;;;;26.95;9.95;;;;;;;7.72;54.00;99962.78;1639240;87;21306;-63
2021/05/05 00:52:25;;;;;;;24.32;10.23;;;;;;;7.73;54.11;99959.02;1639132;87;21087;-63
2021/05/05 00:54:53;;;;;;;26.50;9.53;;;;;;;7.77;54.10;99960.33;1639111;86;21097;-64
2021/05/05 00:57:20;;;;;;;26.70;9.15;;;;;;;7.77;53.90;99962.21;1639121;86;21068;-63
2021/05/05 00:59:48;;;;;;;23.20;8.95;;;;;;;7.75;54.07;99969.22;1639119;86;21112;-66
2021/05/05 01:02:16;;;;;;;21.00;8.55;;;;;;;7.69;53.88;99966.41;1639248;87;21072;-64
2021/05/05 01:04:44;;;;;;;18.35;7.62;;;;;;;7.64;53.78;99976.00;1639315;87;21363;-64
2021/05/05 01:07:12;;;;;;;16.30;7.40;;;;;;;7.63;53.74;99966.64;1639185;87;21088;-65
2021/05/05 01:09:43;;;;;;;17.67;7.25;;;;;;;7.67;53.93;99971.20;1639230;87;21107;-65
2021/05/05 01:12:11;;;;;;;14.90;6.17;;;;;;;7.65;54.08;99957.76;1639238;86;21389;-62
2021/05/05 01:14:39;;;;;;;16.60;6.78;;;;;;;7.65;54.00;99957.76;1639352;87;21369;-64
2021/05/05 01:17:07;;;;;;;17.20;6.75;;;;;;;7.61;53.95;99949.11;1639201;87;21064;-63
2021/05/05 01:19:36;;;;;;;16.32;6.62;;;;;;;7.59;54.00;99960.73;1639209;87;21073;-65
2021/05/05 01:22:04;;;;;;;15.25;6.60;;;;;;;7.57;53.98;99947.80;1639269;86;21124;-64
2021/05/05 01:24:34;;;;;;;16.40;7.50;;;;;;;7.55;54.15;99952.59;1639214;87;21068;-63
2021/05/05 01:27:04;;;;;;;13.72;6.20;;;;;;;7.55;54.38;99953.12;1639176;87;21111;-64
2021/05/05 01:29:33;;;;;;;14.05;6.95;;;;;;;7.52;54.35;99954.86;1639384;87;21317;-63
2021/05/05 01:32:01;;;;;;;14.43;6.17;;;;;;;7.48;54.34;99947.58;1639337;86;21088;-64
2021/05/05 01:34:29;;;;;;;14.03;6.65;;;;;;;7.45;54.44;99948.47;1639189;87;21424;-63
2021/05/05 01:36:57;;;;;;;14.33;5.95;;;;;;;7.44;54.49;99942.69;1640082;86;21924;-63
2021/05/05 01:39:24;;;;;;;11.63;5.58;;;;;;;7.42;54.46;99940.16;1639188;87;21875;-64
2021/05/05 01:41:52;;;;;;;12.82;6.03;;;;;;;7.44;54.38;99941.33;1639309;86;21344;-63
2021/05/05 01:44:32;;;;;;;14.33;6.03;;;;;;;7.46;54.39;99934.66;1638474;87;21159;-63
2021/05/05 01:47:01;;;;;;;12.95;5.58;;;;;;;7.44;54.53;99938.60;1612511;87;21812;-64
2021/05/05 01:49:28;;;;;;;14.33;5.90;;;;;;;7.40;54.57;99935.41;1636023;87;21088;-64
2021/05/05 01:51:59;;;;;;;10.15;5.28;;;;;;;7.39;54.58;99929.62;1635932;87;21069;-65
2021/05/05 01:54:27;;;;;;;11.48;5.30;;;;;;;7.42;54.54;99926.52;1636039;87;21212;-64
2021/05/05 01:56:54;;;;;;;11.35;5.65;;;;;;;7.41;54.32;99922.63;1635984;87;21064;-65
2021/05/05 01:59:22;;;;;;;13.78;5.20;;;;;;;7.41;54.40;99930.80;1635920;87;21061;-63
2021/05/05 02:01:50;;;;;;;13.30;6.00;;;;;;;7.41;54.38;99923.98;1636053;87;21366;-64
2021/05/05 02:04:19;;;;;;;11.25;5.35;;;;;;;7.42;54.33;99932.50;1633365;87;21064;-63
2021/05/05 02:06:53;;;;;;;11.38;5.03;;;;;;;7.41;54.41;99923.47;1635815;87;21096;-62
2021/05/05 02:09:26;;;;;;;11.05;4.25;;;;;;;7.40;54.77;99931.32;1635680;87;21351;-63
2021/05/05 02:11:54;;;;;;;10.90;4.25;;;;;;;7.41;54.88;99930.80;1635986;86;21092;-64
2021/05/05 02:14:22;;;;;;;14.55;4.58;;;;;;;7.39;55.11;99932.87;1635889;86;21068;-64
2021/05/05 02:16:59;;;;;;;9.70;4.33;;;;;;;7.41;55.10;99928.08;1635972;87;21068;-64
2021/05/05 02:19:27;;;;;;;13.25;4.60;;;;;;;7.41;55.04;99927.56;1633391;86;21445;-66
2021/05/05 02:21:55;;;;;;;10.63;4.47;;;;;;;7.40;55.17;99925.02;1633371;86;21089;-63
2021/05/05 02:24:24;;;;;;;10.00;4.35;;;;;;;7.38;55.33;99921.64;1635926;86;21093;-63
2021/05/05 02:26:53;;;;;;;6.92;3.70;;;;;;;7.34;55.39;99912.16;1635979;87;21092;-65
2021/05/05 02:29:20;;;;;;;10.00;4.65;;;;;;;7.30;55.31;99913.89;1635899;87;21300;-63
2021/05/05 02:32:11;;;;;;;10.48;4.45;;;;;;;7.28;55.28;99920.05;1635841;86;21084;-65
2021/05/05 02:34:38;;;;;;;10.30;4.17;;;;;;;7.28;55.45;99911.88;1635945;87;21121;-64
2021/05/05 02:37:06;;;;;;;8.05;3.62;;;;;;;7.27;55.42;99912.91;1635946;87;21855;-63
2021/05/05 02:39:38;;;;;;;8.03;3.72;;;;;;;7.30;55.11;99919.86;1635994;86;21097;-64
2021/05/05 02:42:08;;;;;;;9.08;3.90;;;;;;;7.34;55.11;99910.79;1635965;87;21186;-66
2021/05/05 02:44:36;;;;;;;8.43;4.20;;;;;;;7.37;55.01;99907.17;1633429;87;21911;-65
2021/05/05 02:47:05;;;;;;;9.10;4.72;;;;;;;7.38;55.27;99906.13;1633477;87;21092;-63
2021/05/05 02:49:33;;;;;;;8.15;3.95;;;;;;;7.37;55.33;99917.22;1636035;87;21065;-64
2021/05/05 02:52:02;;;;;;;8.85;4.28;;;;;;;7.35;55.34;99905.67;1635941;87;21442;-65
2021/05/05 02:54:32;;;;;;;8.55;4.20;;;;;;;7.35;55.38;99902.95;1635840;87;21096;-64
2021/05/05 02:56:59;;;;;;;9.48;4.58;;;;;;;7.35;55.37;99907.88;1636012;87;21084;-64
2021/05/05 02:59:27;;;;;;;10.05;4.30;;;;;;;7.37;55.49;99896.78;1635901;86;21107;-65
2021/05/05 03:01:58;;;;;;;13.05;3.90;;;;;;;7.39;55.45;99901.53;1635930;87;21378;-65
2021/05/05 03:04:25;;;;;;;12.35;4.05;;;;;;;7.40;55.55;99904.06;1636045;87;21317;-63
2021/05/05 03:06:54;;;;;;;8.98;4.20;;;;;;;7.40;55.58;99892.31;1636052;87;21328;-63
2021/05/05 03:09:26;;;;;;;9.10;4.20;;;;;;;7.41;55.61;99894.02;1635881;86;21060;-65
2021/05/05 03:11:57;;;;;;;11.53;4.12;;;;;;;7.38;55.69;99888.42;1635952;86;21100;-66
2021/05/05 03:14:25;;;;;;;7.05;3.45;;;;;;;7.38;55.85;99891.14;1635910;86;21458;-62
2021/05/05 03:16:57;;;;;;;9.10;3.60;;;;;;;7.37;55.95;99897.62;1635919;86;21182;-65
2021/05/05 03:19:25;;;;;;;7.95;3.92;;;;;;;7.37;56.03;99894.06;1635911;87;21327;-64
2021/05/05 03:21:52;;;;;;;7.33;3.27;;;;;;;7.39;55.98;99890.11;1635979;87;21198;-65
2021/05/05 03:24:19;;;;;;;7.90;3.50;;;;;;;7.42;55.63;99889.73;1635980;87;21206;-64
2021/05/05 03:26:47;;;;;;;8.45;3.40;;;;;;;7.50;55.48;99885.53;1635893;87;21332;-65
2021/05/05 03:29:16;;;;;;;6.78;2.85;;;;;;;7.58;55.35;99881.86;1635884;87;21121;-65
2021/05/05 03:31:44;;;;;;;7.87;3.90;;;;;;;7.64;55.14;99885.17;1635891;87;21142;-65
2021/05/05 03:34:11;;;;;;;5.12;3.02;;;;;;;7.71;55.06;99886.10;1635882;87;21194;-67
2021/05/05 03:36:38;;;;;;;5.22;3.20;;;;;;;7.77;55.06;99879.87;1635843;86;21307;-64
2021/05/05 03:39:07;;;;;;;5.62;3.10;;;;;;;7.84;54.75;99886.28;1635865;86;21331;-65
2021/05/05 03:41:34;;;;;;;6.15;3.30;;;;;;;7.90;54.42;99887.39;1635878;86;21088;-64
2021/05/05 03:44:01;;;;;;;6.50;3.80;;;;;;;7.98;54.19;99879.09;1635861;87;21190;-64
2021/05/05 03:46:29;;;;;;;6.15;2.90;;;;;;;8.06;54.15;99883.58;1638235;87;21352;-65
2021/05/05 03:48:57;;;;;;;4.50;3.00;;;;;;;8.12;54.01;99885.01;1639163;87;21142;-66
2021/05/05 03:51:24;;;;;;;7.35;3.30;;;;;;;8.17;53.75;99881.17;1639267;87;21072;-65
2021/05/05 03:53:52;;;;;;;7.50;3.42;;;;;;;8.24;53.56;99879.87;1640580;86;21088;-62
2021/05/05 03:56:20;;;;;;;5.83;3.25;;;;;;;8.33;53.45;99880.09;1639301;86;21318;-64
2021/05/05 03:58:47;;;;;;;6.70;3.20;;;;;;;8.40;53.31;99876.91;1639110;87;21199;-64
2021/05/05 04:01:15;;;;;;;6.20;3.30;;;;;;;8.47;53.28;99874.27;1639146;87;21091;-65
2021/05/05 04:03:42;;;;;;;5.83;3.25;;;;;;;8.53;53.19;99874.32;1639155;87;21275;-64
2021/05/05 04:06:10;;;;;;;6.95;3.87;;;;;;;8.57;53.16;99872.88;1639121;86;21116;-64
2021/05/05 04:08:37;;;;;;;7.95;3.60;;;;;;;8.64;53.09;99870.73;1639173;86;21368;-64
2021/05/05 04:11:05;;;;;;;7.28;3.67;;;;;;;8.71;53.05;99879.81;1639118;87;21187;-63
2021/05/05 04:13:33;;;;;;;4.90;3.42;;;;;;;8.74;52.99;99867.12;1639188;86;21195;-63
2021/05/05 04:16:19;;;;;;;7.42;3.20;;;;;;;8.81;52.84;99868.86;1639095;86;21104;-63
2021/05/05 04:19:04;;;;;;;5.90;2.92;;;;;;;8.89;52.78;99873.33;1639059;86;21226;-66
2021/05/05 04:21:50;;;;;;;4.83;3.20;;;;;;;8.95;52.68;99860.23;1639271;87;21100;-64
2021/05/05 04:24:35;;;;;;;4.97;3.00;;;;;;;9.02;52.62;99865.22;1639045;86;21335;-64
2021/05/05 04:27:03;;;;;;;6.12;3.58;;;;;;;9.12;52.50;99866.25;1639201;86;21383;-65
2021/05/05 04:29:30;;;;;;;6.55;3.08;;;;;;;9.20;52.37;99860.09;1639081;86;21068;-64
2021/05/05 04:31:58;;;;;;;4.60;2.83;;;;;;;9.29;52.22;99862.66;1639081;87;21263;-64
2021/05/05 04:34:26;;;;;;;7.55;3.27;;;;;;;9.37;52.11;99857.02;1639106;86;21464;-63
2021/05/05 04:36:54;;;;;;;8.28;3.25;;;;;;;9.46;51.91;99851.70;1639084;86;21377;-64
2021/05/05 04:39:21;;;;;;;6.53;3.15;;;;;;;9.56;51.75;99843.11;1639120;87;21896;-64
2021/05/05 04:41:49;;;;;;;6.37;3.02;;;;;;;9.66;51.57;99839.46;1639168;86;21250;-65
2021/05/05 04:44:16;;;;;;;4.28;2.65;;;;;;;9.76;51.25;99841.31;1639111;87;21407;-65
2021/05/05 04:46:44;;;;;;;4.75;2.77;;;;;;;9.85;51.10;99835.97;1639048;86;21147;-64
2021/05/05 04:49:12;;;;;;;7.65;3.40;;;;;;;9.95;50.99;99832.83;1639182;87;21320;-63
2021/05/05 04:51:39;;;;;;;5.60;3.20;;;;;;;10.04;50.87;99832.42;1639233;86;21092;-64
2021/05/05 04:54:07;;;;;;;6.28;2.98;;;;;;;10.13;50.83;99833.07;1639125;87;21231;-66
2021/05/05 04:56:36;;;;;;;15.13;3.85;;;;;;;10.23;50.70;99828.06;1639109;87;21080;-63
2021/05/05 04:59:04;;;;;;;5.85;3.40;;;;;;;10.32;50.60;99834.17;1639038;87;21331;-64
2021/05/05 05:01:31;;;;;;;7.80;3.50;;;;;;;10.42;50.54;99827.25;1638999;87;21359;-63
2021/05/05 05:03:59;;;;;;;6.42;3.33;;;;;;;10.51;50.45;99827.04;1639115;87;21188;-64
2021/05/05 05:06:26;;;;;;;6.33;3.15;;;;;;;10.61;50.33;99820.61;1638980;87;21080;-66
2021/05/05 05:08:55;;;;;;;7.97;3.40;;;;;;;10.70;50.17;99819.33;1639033;86;21081;-64
2021/05/05 05:11:23;;;;;;;9.93;3.35;;;;;;;10.80;50.15;99823.32;1639057;87;21076;-64
2021/05/05 05:13:51;;;;;;;5.87;3.37;;;;;;;10.90;49.92;99817.92;1638964;86;21334;-66
2021/05/05 05:16:19;;;;;;;9.35;3.55;;;;;;;10.99;49.75;99814.73;1639082;86;21084;-65
2021/05/05 05:18:49;;;;;;;6.22;2.92;;;;;;;11.08;49.53;99808.00;1639018;87;21216;-64
2021/05/05 05:21:16;;;;;;;6.80;3.30;;;;;;;11.18;49.36;99812.19;1639190;86;21068;-66
2021/05/05 05:23:44;;;;;;;4.33;2.98;;;;;;;11.26;49.18;99810.58;1639047;87;21210;-64
2021/05/05 05:26:12;;;;;;;9.60;3.00;;;;;;;11.35;49.03;99807.90;1639032;87;21167;-65
2021/05/05 05:28:39;;;;;;;5.67;2.40;;;;;;;11.44;48.85;99801.95;1639025;87;21263;-64
2021/05/05 05:31:06;;;;;;;11.50;2.50;;;;;;;11.55;48.67;99800.42;1639036;86;21064;-64
2021/05/05 05:33:34;;;;;;;7.30;2.17;;;;;;;11.65;48.37;99796.67;1638961;86;21079;-63
2021/05/05 05:36:01;;;;;;;4.25;2.30;;;;;;;11.78;48.14;99801.84;1639034;86;21336;-64
2021/05/05 05:38:29;;;;;;;5.03;2.00;;;;;;;11.87;48.09;99804.10;1638966;86;21331;-64
2021/05/05 05:40:56;;;;;;;4.58;2.00;;;;;;;11.97;48.02;99792.63;1638947;87;21274;-64
2021/05/05 05:43:24;;;;;;;3.75;2.40;;;;;;;12.10;48.00;99785.67;1638989;87;21120;-63
2021/05/05 05:45:53;;;;;;;5.72;2.10;;;;;;;12.20;47.95;99783.80;1637486;86;21128;-65
2021/05/05 05:48:20;;;;;;;4.00;1.55;;;;;;;12.29;48.08;99779.18;1643986;87;21099;-65
2021/05/05 05:50:49;;;;;;;3.47;2.00;;;;;;;12.38;47.94;99783.36;1644122;87;21080;-64
2021/05/05 05:53:16;;;;;;;4.83;2.10;;;;;;;12.48;47.86;99772.39;1644061;87;21343;-63
2021/05/05 05:55:45;;;;;;;6.25;2.42;;;;;;;12.54;47.78;99765.46;1614441;87;21337;-66
2021/05/05 05:58:12;;;;;;;6.03;2.40;;;;;;;12.62;47.72;99761.05;1632373;88;21316;-65
2021/05/05 06:00:39;;;;;;;6.53;2.27;;;;;;;12.73;47.59;99755.87;1644026;87;21116;-63
2021/05/05 06:03:07;;;;;;;6.03;2.67;;;;;;;12.83;47.48;99758.39;1644056;87;21065;-63
2021/05/05 06:05:35;;;;;;;4.30;2.10;;;;;;;12.93;47.40;99757.33;1644024;87;21338;-64
2021/05/05 06:08:04;;;;;;;4.33;2.10;;;;;;;13.04;47.41;99752.17;1614589;87;21148;-64
2021/05/05 06:10:31;;;;;;;5.08;2.58;;;;;;;13.14;47.41;99755.22;1632430;86;21407;-63
2021/05/05 06:12:59;;;;;;;5.00;2.40;;;;;;;13.27;47.22;99744.92;1644072;86;21202;-64
2021/05/05 06:15:26;;;;;;;2.90;1.75;;;;;;;13.39;47.15;99749.11;1645978;84;21814;-66
2021/05/05 06:17:53;;;;;;;3.35;2.40;;;;;;;13.51;47.07;99752.75;1663597;85;21304;-63
2021/05/05 06:20:21;;;;;;;5.40;2.05;;;;;;;13.62;47.05;99754.70;1673148;85;21074;-65
2021/05/05 06:22:48;;;;;;;4.50;2.10;;;;;;;13.74;47.03;99748.44;1672380;85;21234;-63
2021/05/05 06:25:15;;;;;;;5.53;2.30;;;;;;;13.87;47.12;99753.75;1657090;86;21274;-64
2021/05/05 06:27:44;;;;;;;5.55;2.22;;;;;;;14.00;47.13;99752.16;1669802;85;21371;-65
2021/05/05 06:30:13;;;;;;;3.52;2.08;;;;;;;14.12;47.18;99753.03;1676799;84;21081;-65
2021/05/05 06:32:41;;;;;;;6.12;2.45;;;;;;;14.24;47.27;99754.42;1694678;84;21175;-64
2021/05/05 06:35:10;;;;;;;4.87;2.17;;;;;;;14.35;47.38;99752.80;1673125;85;21365;-64
2021/05/05 06:37:37;;;;;;;3.95;1.95;;;;;;;14.46;47.54;99758.34;1673070;85;21939;-64
2021/05/05 06:40:06;;;;;;;2.85;1.92;;;;;;;14.59;47.63;99758.64;1673220;85;21285;-65
2021/05/05 06:42:34;;;;;;;6.15;2.45;;;;;;;14.71;47.55;99755.34;1660581;85;21101;-63
2021/05/05 06:45:04;;;;;;;2.80;1.67;;;;;;;14.83;47.68;99744.30;1647581;87;21366;-66
2021/05/05 06:47:31;;;;;;;5.03;2.00;;;;;;;14.94;47.80;99746.21;1684596;84;21093;-65
2021/05/05 06:49:59;;;;;;;2.92;1.82;;;;;;;15.04;48.13;99742.33;1691706;84;21288;-66
2021/05/05 06:52:27;;;;;;;5.28;2.00;;;;;;;15.13;48.27;99740.02;1691662;84;21292;-64
2021/05/05 06:54:54;;;;;;;3.70;1.90;;;;;;;15.21;48.45;99737.72;1691698;84;21066;-66
2021/05/05 06:57:21;;;;;;;5.40;1.70;;;;;;;15.32;48.47;99737.94;1691680;84;21066;-66
2021/05/05 06:59:49;;;;;;;3.75;1.82;;;;;;;15.41;48.45;99744.20;1691739;84;21069;-65
2021/05/05 07:02:16;;;;;;;7.22;2.30;;;;;;;15.50;48.42;99751.01;1691662;84;21077;-65
2021/05/05 07:04:46;;;;;;;6.25;1.85;;;;;;;15.59;48.34;99749.27;1691797;84;21114;-65
2021/05/05 07:07:13;;;;;;;3.85;1.95;;;;;;;15.67;48.23;99736.48;1691881;84;21076;-64
2021/05/05 07:09:41;;;;;;;9.15;2.30;;;;;;;15.73;48.23;99732.18;1691648;84;21348;-65
2021/05/05 07:12:08;;;;;;;3.85;2.10;;;;;;;15.83;48.24;99732.37;1691682;84;21109;-65
2021/05/05 07:14:36;;;;;;;5.62;1.95;;;;;;;15.94;48.14;99744.98;1691557;84;21356;-64
2021/05/05 07:17:03;;;;;;;5.53;2.42;;;;;;;16.03;47.98;99739.34;1703141;83;21062;-63
2021/05/05 07:19:31;;;;;;;3.75;1.92;;;;;;;16.09;47.90;99734.20;1699023;83;21057;-63
2021/05/05 07:21:58;;;;;;;6.60;2.40;;;;;;;16.14;47.90;99724.06;1684262;83;21140;-65
2021/05/05 07:24:26;;;;;;;9.60;3.00;;;;;;;16.23;47.93;99724.48;1661966;85;21107;-66
2021/05/05 07:26:53;;;;;;;5.97;2.47;;;;;;;16.34;47.74;99715.30;1663369;84;21328;-65
2021/05/05 07:29:21;;;;;;;9.35;1.92;;;;;;;16.45;47.58;99714.38;1663682;84;21118;-67
2021/05/05 07:31:48;;;;;;;44.53;5.37;;;;;;;16.54;47.46;99712.56;1649566;87;21344;-64
2021/05/05 07:34:17;;;;;;;10.93;3.52;;;;;;;16.64;47.33;99710.78;1648905;86;21101;-66
2021/05/05 07:36:47;;;;;;;6.28;2.10;;;;;;;16.72;47.16;99714.53;1696723;84;21033;-65
2021/05/05 07:49:23;;;;;;;6.00;2.30;;;;;;;17.07;46.52;99711.44;1691621;83;21497;-70
2021/05/05 07:51:50;;;;;;;7.15;2.52;;;;;;;17.17;46.35;99715.43;1698804;84;21337;-67
2021/05/05 07:54:18;;;;;;;4.22;2.08;;;;;;;17.19;45.85;99705.77;1691741;84;21828;-65
2021/05/05 07:56:46;;;;;;;5.35;1.98;;;;;;;17.16;46.05;99713.20;1691365;84;21830;-65
2021/05/05 07:59:13;;;;;;;3.80;2.20;;;;;;;17.17;45.92;99718.20;1693024;84;21779;-69
2021/05/05 08:01:42;;;;;;;3.17;2.10;;;;;;;17.21;45.88;99716.59;1692701;84;21120;-63
2021/05/05 08:04:10;;;;;;;6.53;2.30;;;;;;;17.29;45.85;99704.51;1687424;84;21784;-67
2021/05/05 08:06:37;;;;;;;5.67;2.20;;;;;;;17.38;45.70;99704.89;1687465;84;21114;-68
2021/05/05 08:09:05;;;;;;;4.25;2.15;;;;;;;17.47;45.52;99713.02;1691678;83;21316;-69
2021/05/05 08:11:32;;;;;;;7.42;2.47;;;;;;;17.52;45.35;99709.47;1686944;84;21326;-69
2021/05/05 08:14:00;;;;;;;4.05;2.50;;;;;;;17.57;45.42;99708.17;1693013;83;21318;-67
2021/05/05 08:16:27;;;;;;;5.03;2.15;;;;;;;17.63;45.44;99691.90;1692239;84;21222;-67
2021/05/05 08:18:55;;;;;;;5.03;2.55;;;;;;;17.70;45.41;99703.09;1689578;84;21302;-64
2021/05/05 08:21:23;;;;;;;5.50;2.90;;;;;;;17.79;45.13;99697.91;1691222;84;21095;-66
2021/05/05 08:23:52;;;;;;;7.22;2.30;;;;;;;17.87;44.94;99688.28;1692093;83;21382;-69
2021/05/05 08:26:20;;;;;;;5.67;2.40;;;;;;;17.96;44.74;99677.84;1696876;83;21302;-69
2021/05/05 08:28:47;;;;;;;6.03;2.33;;;;;;;18.03;44.80;99675.68;1690778;83;21781;-66
2021/05/05 08:31:15;;;;;;;5.70;2.35;;;;;;;18.11;44.52;99676.30;1701093;82;21060;-67
2021/05/05 08:33:43;;;;;;;6.87;2.50;;;;;;;18.13;43.92;99680.47;1702966;83;21107;-68
2021/05/05 08:36:11;;;;;;;5.10;2.17;;;;;;;18.12;43.55;99680.73;1686462;84;21063;-66
2021/05/05 08:38:38;;;;;;;4.78;2.47;;;;;;;18.12;43.78;99675.19;1687705;83;21104;-66
2021/05/05 08:41:09;;;;;;;3.27;2.22;;;;;;;18.18;43.43;99671.36;1676201;84;21364;-70
2021/05/05 08:43:37;;;;;;;3.77;2.08;;;;;;;18.26;43.25;99680.05;1646355;85;21296;-71
2021/05/05 08:46:07;;;;;;;4.70;1.90;;;;;;;18.31;41.97;99679.25;1649589;87;21207;-68
2021/05/05 08:48:36;;;;;;;3.87;1.95;;;;;;;18.26;41.82;99688.92;1644225;86;21228;-67
2021/05/05 08:51:11;;;;;;;6.75;2.08;;;;;;;18.19;41.93;99678.58;1620775;87;21244;-65
2021/05/05 08:53:35;;;;;;;4.50;2.12;;;;;;;18.17;42.10;99693.25;1646264;85;21206;-68
2021/05/05 08:56:03;;;;;;;5.85;1.95;;;;;;;18.18;42.16;99681.06;1662565;84;21184;-69
2021/05/05 08:58:31;;;;;;;6.78;2.52;;;;;;;18.20;41.88;99689.41;1670587;84;21697;-66
2021/05/05 09:01:00;;;;;;;4.12;2.40;;;;;;;18.26;42.21;99670.90;1646652;85;21345;-64
2021/05/05 09:03:32;;;;;;;4.08;2.20;;;;;;;18.37;42.34;99665.16;1646444;85;21041;-66
2021/05/05 09:06:03;;;;;;;6.47;2.52;;;;;;;18.50;42.15;99678.27;1647346;87;21081;-67
2021/05/05 09:08:33;;;;;;;5.00;2.42;;;;;;;18.58;41.66;99679.16;1647240;87;21164;-67
2021/05/05 09:11:11;;;;;;;9.38;3.08;;;;;;;18.68;41.12;99677.87;1647429;85;21086;-65
2021/05/05 09:13:51;;;;;;;2.67;1.82;;;;;;;18.81;40.27;99679.33;1646597;85;21505;-67
2021/05/05 09:16:30;;;;;;;3.67;2.05;;;;;;;18.83;40.28;99676.56;1645823;85;21377;-68
2021/05/05 09:19:10;;;;;;;5.60;2.47;;;;;;;18.88;40.25;99671.06;1670919;84;21092;-66
2021/05/05 09:21:49;;;;;;;5.05;2.50;;;;;;;18.99;40.35;99678.89;1660322;84;21079;-66
2021/05/05 09:24:30;;;;;;;4.85;2.30;;;;;;;19.07;40.29;99654.77;1620788;87;21221;-66
2021/05/05 09:27:00;;;;;;;5.03;2.05;;;;;;;19.14;40.31;99657.30;1680079;83;21326;-69
2021/05/05 09:29:47;;;;;;;3.33;1.95;;;;;;;19.23;39.96;99643.16;1673587;84;21049;-67
2021/05/05 09:32:17;;;;;;;4.95;2.62;;;;;;;19.32;39.77;99653.47;1672218;84;21548;-64
2021/05/05 09:34:58;;;;;;;4.87;2.98;;;;;;;19.44;39.31;99646.27;1657836;85;21178;-65
2021/05/05 09:37:26;;;;;;;7.03;2.60;;;;;;;19.41;39.25;99643.21;1665252;84;21874;-63
2021/05/05 09:40:00;;;;;;;3.37;2.20;;;;;;;19.35;39.42;99640.14;1648712;86;21905;-68
2021/05/05 09:42:33;;;;;;;3.35;2.30;;;;;;;19.39;39.20;99625.42;1679136;84;21290;-65
2021/05/05 09:45:07;;;;;;;5.85;2.77;;;;;;;19.43;38.91;99628.48;1674344;84;21133;-66
2021/05/05 09:47:55;;;;;;;3.83;2.30;;;;;;;19.41;38.87;99626.54;1674742;83;21358;-64
2021/05/05 09:50:41;;;;;;;7.00;2.40;;;;;;;19.49;38.71;99629.61;1684617;84;21204;-65
2021/05/05 09:53:25;;;;;;;4.70;2.62;;;;;;;19.63;38.90;99633.59;1677721;84;21370;-64
2021/05/05 09:56:00;;;;;;;4.75;2.75;;;;;;;19.75;38.47;99626.92;1680245;84;21107;-65
2021/05/05 09:58:42;;;;;;;3.15;2.17;;;;;;;19.84;38.35;99621.09;1669370;85;21104;-65
2021/05/05 10:01:15;;;;;;;4.28;2.37;;;;;;;19.89;38.28;99612.20;1664358;84;21056;-66
2021/05/05 10:03:54;;;;;;;6.33;3.20;;;;;;;19.88;38.38;99618.03;1672638;85;21098;-69
2021/05/05 10:06:32;;;;;;;7.95;2.35;;;;;;;19.93;38.21;99624.43;1681785;85;21139;-64
2021/05/05 10:09:08;;;;;;;8.33;2.62;;;;;;;20.08;37.66;99603.28;1685701;84;21117;-65
2021/05/05 10:11:37;;;;;;;11.75;2.60;;;;;;;20.24;37.17;99620.27;1686529;85;21363;-64
2021/05/05 10:14:13;;;;;;;6.08;2.45;;;;;;;20.36;36.35;99611.06;1688303;84;21286;-64
2021/05/05 10:16:46;;;;;;;5.25;2.17;;;;;;;20.45;36.21;99605.78;1686925;85;21107;-62
2021/05/05 10:19:19;;;;;;;4.80;2.83;;;;;;;20.53;35.93;99606.59;1687886;85;21338;-64
2021/05/05 10:21:59;;;;;;;4.55;2.50;;;;;;;20.62;35.60;99603.52;1688297;85;21144;-64
2021/05/05 10:24:29;;;;;;;5.60;2.33;;;;;;;20.64;34.93;99601.84;1685634;85;21086;-65
2021/05/05 10:26:57;;;;;;;4.20;2.10;;;;;;;20.62;34.45;99599.34;1666489;85;21385;-62
2021/05/05 10:29:27;;;;;;;2.42;1.87;;;;;;;20.65;34.54;99596.54;1676092;85;21111;-63
2021/05/05 10:31:58;;;;;;;8.88;2.40;;;;;;;20.74;34.56;99607.37;1662054;86;21885;-63
2021/05/05 10:34:27;;;;;;;3.55;1.90;;;;;;;20.83;34.42;99616.27;1661909;86;21219;-65
2021/05/05 10:36:56;;;;;;;4.80;2.30;;;;;;;20.81;33.63;99600.97;1661956;85;21405;-65
2021/05/05 10:39:29;;;;;;;3.67;1.87;;;;;;;20.84;32.93;99584.52;1661991;86;21094;-65
2021/05/05 10:42:15;;;;;;;3.62;2.10;;;;;;;20.94;32.75;99587.82;1679456;85;21083;-64
2021/05/05 10:44:53;;;;;;;3.25;1.72;;;;;;;21.05;33.11;99589.44;1679060;84;21140;-66
2021/05/05 10:47:30;;;;;;;2.62;1.67;;;;;;;21.18;32.81;99592.16;1683257;83;21094;-65
2021/05/05 10:50:11;;;;;;;2.75;1.85;;;;;;;21.26;32.48;99586.56;1680099;84;21331;-64
2021/05/05 10:52:49;;;;;;;10.82;1.85;;;;;;;21.36;32.33;99590.12;1679157;84;21364;-65
2021/05/05 10:55:19;;;;;;;3.92;1.90;;;;;;;21.37;32.03;99586.21;1692626;84;21081;-64
2021/05/05 10:58:08;;;;;;;4.03;1.90;;;;;;;21.40;32.42;99584.80;1650431;84;21345;-68
2021/05/05 11:00:53;;;;;;;6.37;1.80;;;;;;;21.50;32.28;99591.17;1651721;85;21207;-67
2021/05/05 11:03:46;;;;;;;5.87;2.10;;;;;;;21.60;31.81;99581.06;1651209;87;21086;-65
2021/05/05 11:06:39;;;;;;;2.52;1.80;;;;;;;21.58;31.52;99588.89;1651041;87;21223;-69
2021/05/05 11:09:17;;;;;;;2.25;1.50;;;;;;;21.53;30.83;99602.30;1662347;86;21729;-70
2021/05/05 11:11:50;;;;;;;3.90;1.60;;;;;;;21.45;29.57;99588.95;1676640;83;21097;-65
2021/05/05 11:14:31;;;;;;;4.50;1.50;;;;;;;21.41;29.19;99590.65;1678074;84;21296;-69
2021/05/05 11:17:01;;;;;;;2.25;1.60;;;;;;;21.33;29.60;99585.69;1677673;84;21070;-67
2021/05/05 11:19:44;;;;;;;3.35;1.70;;;;;;;21.29;30.10;99567.88;1687950;84;21141;-64
2021/05/05 11:22:33;;;;;;;3.80;1.70;;;;;;;21.20;30.58;99575.42;1692231;83;21363;-64
2021/05/05 11:25:22;;;;;;;3.72;1.77;;;;;;;21.27;30.91;99564.55;1686032;85;21064;-68
2021/05/05 11:27:52;;;;;;;4.67;2.70;;;;;;;21.40;29.54;99574.48;1679845;84;21165;-66
2021/05/05 11:30:40;;;;;;;2.45;1.60;;;;;;;21.56;28.95;99583.60;1687146;85;21072;-66
2021/05/05 11:33:09;;;;;;;2.10;1.40;;;;;;;21.62;28.74;99581.05;1688393;85;22069;-67
2021/05/05 11:35:38;;;;;;;3.95;1.47;;;;;;;21.62;28.29;99576.86;1688517;84;21099;-65
2021/05/05 11:38:23;;;;;;;1.90;1.32;;;;;;;21.63;28.50;99567.37;1659607;85;21305;-67
2021/05/05 11:40:56;;;;;;;5.05;2.58;;;;;;;21.66;28.62;99563.17;1662327;84;21377;-67
2021/05/05 11:43:26;;;;;;;3.42;2.17;;;;;;;21.74;28.25;99562.55;1655271;85;21080;-66
2021/05/05 11:45:58;;;;;;;5.62;2.00;;;;;;;21.89;27.74;99554.05;1657487;85;21550;-65
2021/05/05 11:48:31;;;;;;;3.77;1.87;;;;;;;22.03;27.52;99557.84;1653770;85;21090;-65
2021/05/05 11:51:01;;;;;;;7.20;2.30;;;;;;;22.18;27.20;99566.66;1659941;86;21074;-64
2021/05/05 11:53:35;;;;;;;4.50;2.00;;;;;;;22.34;26.37;99559.79;1659983;86;21197;-66
2021/05/05 11:56:04;;;;;;;6.53;2.00;;;;;;;22.49;26.29;99549.58;1660050;85;21105;-72
2021/05/05 11:58:32;;;;;;;11.83;1.87;;;;;;;22.65;25.92;99568.64;1627938;87;21258;-71